This is the latest recevied weather packets stored in our database for station/object K7TSD. If no packets are shown the sender has not sent any weather packets the latest 1 day(s).
| Time | Temp. | Humidity | Pressure | Rain* | Wind** | Luminosity | Snow |
|---|---|---|---|---|---|---|---|
| 1778085784 | 4.44° C | 50% | 1014.9 hPa | 0 mm | - | 749 W/m² | - |
| 1778085481 | 5° C | 50% | 1014.9 hPa | 0 mm | - | 721 W/m² | - |
| 1778085176 | 5° C | 48% | 1014.9 hPa | 0 mm | - | 716 W/m² | - |
| 1778084872 | 4.44° C | 48% | 1015 hPa | 0 mm | - | 719 W/m² | - |
| 1778084570 | 4.44° C | 49% | 1014.6 hPa | 0 mm | - | 700 W/m² | - |
| 1778083656 | 4.44° C | 48% | 1014.9 hPa | 0 mm | - | 642 W/m² | - |
| 1778083051 | 3.89° C | 49% | 1015.2 hPa | 0 mm | - | 569 W/m² | - |
| 1778081615 | 3.89° C | 47% | 1015.3 hPa | 0 mm | - | 446 W/m² | - |
| 1778080404 | 3.89° C | 47% | 1015.2 hPa | 0 mm | - | 380 W/m² | - |
| 1778080101 | 3.33° C | 49% | 1015.6 hPa | 0 mm | - | 368 W/m² | - |
| 1778079798 | 3.33° C | 49% | 1015.7 hPa | 0 mm | - | 356 W/m² | - |
| 1778079191 | 3.89° C | 48% | 1015.4 hPa | 0 mm | - | 288 W/m² | - |
| 1778078585 | 2.78° C | 49% | 1015.6 hPa | 0 mm | - | 291 W/m² | - |
| 1778076166 | 1.67° C | 51% | 1015.7 hPa | 0 mm | - | 186 W/m² | - |
| 1778074953 | 1.67° C | 51% | 1016 hPa | 0 mm | - | 127 W/m² | - |
| 1778071924 | -1.11° C | 63% | 1015.7 hPa | 0 mm | - | 26 W/m² | - |
| 1778071622 | -1.11° C | 62% | 1015.6 hPa | 0 mm | - | 24 W/m² | - |
| 1778070412 | -2.78° C | 65% | 1015.4 hPa | 0 mm | - | 17 W/m² | - |
| 1778069807 | -3.33° C | 66% | 1015.4 hPa | 0 mm | - | 12 W/m² | - |
| 1778069503 | -3.33° C | 67% | 1015.4 hPa | 0 mm | - | 9 W/m² | - |
| 1778068898 | -3.33° C | 67% | 1015.3 hPa | 0 mm | - | 6 W/m² | - |
| 1778066176 | -3.33° C | 67% | 1015 hPa | 0 mm | - | 0 W/m² | - |
| 1778063754 | -4.44° C | 69% | 1015.2 hPa | 0 mm | - | 0 W/m² | - |
| 1778062846 | -4.44° C | 70% | 1015.4 hPa | 0 mm | - | 0 W/m² | - |
| 1778061938 | -3.89° C | 69% | 1015.1 hPa | 0 mm | - | 0 W/m² | - |
* Rain latest hour (hover to see other rain measurements)
** Current wind speed in m/s (hover to see current wind gust speed)